Red Bluff Municipal Airport
KRBL : now visible

Airfield :











YOU CAN JOIN US ON...

 
LOGIN :

Register | Disclaimer

   EN    FR    IT 

 









Legend :    VFR   Marginal VFR   IFR   Intensive IFR   Very Intensive IFR
Visi :
Ceiling :
>= 8 km
>= 3000ft
5 to 8 km
1000 to 3000 ft
1500m to 5 km
500 to 1000 ft
800 to 1500m
200 to 500 ft
< 800m
< 200 ft
Symbols :   Thunderstorms  Fog  Heavy snow  Heavy precipitations  Wind > 20 kt






- Airport Elevation : 352 ft


KRBL - Red Bluff Municipal

CURRENT METAR :
  • 180554Z AUTO 34012KT 10SM CLR 12/M08 A3010 RMK AO2 SLP191 T01221078 10183 20122 53004

EXPIRED METARs :
  • 180454Z AUTO 34018G21KT 10SM CLR 13/M08 A3009 RMK AO2 SLP188 T01331083
  • 180354Z AUTO 34014KT 10SM CLR 13/M09 A3009 RMK AO2 SLP188 T01331089

TAF KRBL
Valid from the 18 at 06:00 until the 19 at 06:00 UTC


180520Z 1806/1906 34011KT P6SM FEW250
FM190300 VRB04KT P6SM SKC



MET'MAP, your aeronautical weather chart ! - Copyright ORBIFLY December 2007 - Disclaimer

ORBIFLY MET'MAP TEAM :

Programming & Development : Alexandra Zaïnal
Concept & original design : Baudouin d'Aumeries
Assistance for programming : Marc-Olivier Méhu
Technical & hardware support : Manuel Goepfert

Contact : metmap@orbifly.com




SOURCES & CREDITS :

   NOAA       Earth
Advisory